Time;durP1;ratioP1;P1;durP2;ratioP2;P2;SDS_P1;SDS_P2;PMS_P1;PMS_P2;Temp;Humidity;BMP_temperature;BMP_pressure;BME280_temperature;BME280_humidity;BME280_pressure;Samples;Min_cycle;Max_cycle;Signal;HPM_P1;HPM_P2
2024/02/21 00:00:25;;;;;;;115.15;16.90;;;;;;;;;;4993624;28;20147;-55
2024/02/21 00:03:20;;;;;;;78.68;14.30;;;;;;;;;;4994701;28;20052;-59
2024/02/21 00:06:07;;;;;;;86.65;15.73;;;;;;;;;;4995105;28;20053;-59
2024/02/21 00:09:01;;;;;;;85.25;15.90;;;;;;;;;;4993079;28;20069;-60
2024/02/21 00:11:48;;;;;;;89.47;15.35;;;;;;;;;;4994724;28;20054;-56
2024/02/21 00:14:42;;;;;;;95.90;15.85;;;;;;;;;;4989418;28;20054;-60
2024/02/21 00:17:44;;;;;;;80.05;14.20;;;;;;;;;;4990472;28;20811;-58
2024/02/21 00:20:18;;;;;;;93.55;15.15;;;;;;;;;;4995436;28;20064;-64
2024/02/21 00:22:45;;;;;;;106.32;14.77;;;;;;;;;;4994055;28;20083;-64
2024/02/21 00:25:19;;;;;;;97.60;17.30;;;;;;;;;;4995931;28;20570;-65
2024/02/21 00:27:46;;;;;;;104.05;17.17;;;;;;;;;;4996199;28;20082;-66
2024/02/21 00:30:13;;;;;;;105.10;16.55;;;;;;;;;;4980071;28;20112;-51
2024/02/21 00:33:07;;;;;;;95.57;14.90;;;;;;;;;;4995625;28;20053;-52
2024/02/21 00:35:54;;;;;;;83.82;14.50;;;;;;;;;;4995926;28;20508;-49
2024/02/21 00:38:48;;;;;;;109.68;16.50;;;;;;;;;;4995514;28;20096;-51
2024/02/21 00:41:35;;;;;;;103.03;15.73;;;;;;;;;;4991514;28;20050;-53
2024/02/21 00:44:29;;;;;;;106.53;17.40;;;;;;;;;;4998829;28;20425;-50
2024/02/21 00:47:22;;;;;;;104.25;18.00;;;;;;;;;;4997823;28;20112;-64
2024/02/21 00:50:17;;;;;;;116.32;18.35;;;;;;;;;;4991197;28;20404;-64
2024/02/21 00:53:04;;;;;;;125.47;20.83;;;;;;;;;;4995246;28;20058;-65
2024/02/21 00:55:59;;;;;;;115.90;21.70;;;;;;;;;;4998791;28;20103;-64
2024/02/21 00:58:46;;;;;;;110.68;19.33;;;;;;;;;;4997054;28;20132;-52
2024/02/21 01:01:42;;;;;;;117.88;19.95;;;;;;;;;;4993709;28;20054;-62
2024/02/21 01:04:27;;;;;;;110.97;18.02;;;;;;;;;;4993149;28;20108;-62
2024/02/21 01:07:21;;;;;;;108.20;18.15;;;;;;;;;;4994926;28;20046;-62
2024/02/21 01:10:08;;;;;;;112.30;19.30;;;;;;;;;;4994180;28;20151;-62
2024/02/21 01:13:02;;;;;;;98.30;17.40;;;;;;;;;;4994672;28;20524;-62
2024/02/21 01:15:49;;;;;;;117.03;17.55;;;;;;;;;;4995160;28;20602;-47
2024/02/21 01:18:49;;;;;;;108.88;16.52;;;;;;;;;;4995290;28;20060;-44
2024/02/21 01:21:44;;;;;;;95.45;18.25;;;;;;;;;;4995479;28;20049;-46
2024/02/21 01:24:31;;;;;;;85.05;15.38;;;;;;;;;;4990450;28;20046;-49
2024/02/21 01:27:25;;;;;;;81.90;14.55;;;;;;;;;;4992317;28;20101;-61
2024/02/21 01:30:12;;;;;;;73.75;13.57;;;;;;;;;;4991900;28;20065;-53
2024/02/21 01:33:06;;;;;;;63.85;12.23;;;;;;;;;;4995301;28;20917;-55
2024/02/21 01:35:53;;;;;;;64.75;12.90;;;;;;;;;;4987357;28;20061;-56
2024/02/21 01:38:46;;;;;;;56.47;11.90;;;;;;;;;;4994937;28;20406;-51
2024/02/21 01:41:34;;;;;;;45.78;10.60;;;;;;;;;;4994495;28;20041;-48
2024/02/21 01:44:27;;;;;;;70.03;12.27;;;;;;;;;;4995779;28;20056;-55
2024/02/21 01:47:15;;;;;;;47.55;9.70;;;;;;;;;;4987212;28;20081;-53
2024/02/21 01:50:09;;;;;;;42.38;9.63;;;;;;;;;;4990349;28;20057;-54
2024/02/21 01:52:56;;;;;;;31.33;8.93;;;;;;;;;;4993978;28;20042;-51
2024/02/21 01:55:49;;;;;;;40.90;10.57;;;;;;;;;;4994894;28;20468;-61
2024/02/21 01:58:37;;;;;;;54.10;11.52;;;;;;;;;;4993065;28;20065;-59
2024/02/21 02:01:31;;;;;;;56.60;12.93;;;;;;;;;;4985171;28;20117;-56
2024/02/21 02:04:19;;;;;;;61.50;12.77;;;;;;;;;;4986336;28;20413;-57
2024/02/21 02:07:13;;;;;;;62.95;12.95;;;;;;;;;;4993393;28;20049;-56
2024/02/21 02:10:00;;;;;;;62.08;13.10;;;;;;;;;;4991633;28;20148;-55
2024/02/21 02:12:54;;;;;;;46.90;13.38;;;;;;;;;;4994098;28;20064;-51
2024/02/21 02:15:50;;;;;;;55.20;12.18;;;;;;;;;;4993656;28;20213;-57
2024/02/21 02:18:51;;;;;;;58.78;12.60;;;;;;;;;;4952031;28;20047;-51
2024/02/21 02:21:40;;;;;;;47.17;12.15;;;;;;;;;;4946593;28;20510;-55
2024/02/21 02:24:33;;;;;;;46.50;11.80;;;;;;;;;;4952255;28;20046;-50
2024/02/21 02:27:22;;;;;;;49.30;10.98;;;;;;;;;;4949950;28;20066;-55
2024/02/21 02:30:15;;;;;;;47.20;11.98;;;;;;;;;;4954090;28;20057;-61
2024/02/21 02:33:05;;;;;;;43.75;11.32;;;;;;;;;;4950579;28;20058;-48
2024/02/21 02:36:00;;;;;;;52.17;12.50;;;;;;;;;;4951906;28;20138;-49
2024/02/21 02:38:47;;;;;;;58.72;12.82;;;;;;;;;;4953669;28;20055;-52
2024/02/21 02:41:41;;;;;;;50.22;11.88;;;;;;;;;;4954262;28;20062;-64
2024/02/21 02:44:28;;;;;;;65.63;14.07;;;;;;;;;;4949029;28;21354;-47
2024/02/21 02:47:22;;;;;;;60.78;13.52;;;;;;;;;;4952079;28;20153;-48
2024/02/21 02:50:17;;;;;;;39.92;11.13;;;;;;;;;;4951193;28;20077;-48
2024/02/21 02:53:10;;;;;;;30.50;9.75;;;;;;;;;;4955153;28;20055;-51
2024/02/21 02:55:58;;;;;;;38.78;9.93;;;;;;;;;;4956149;28;20062;-50
2024/02/21 02:58:51;;;;;;;44.10;10.20;;;;;;;;;;4953556;28;20090;-64
2024/02/21 03:01:39;;;;;;;38.85;9.70;;;;;;;;;;4959410;28;20051;-64
2024/02/21 03:04:33;;;;;;;32.15;8.35;;;;;;;;;;4960773;28;20051;-66
2024/02/21 03:07:27;;;;;;;48.78;10.27;;;;;;;;;;4963293;28;20055;-65
2024/02/21 03:10:21;;;;;;;33.30;9.10;;;;;;;;;;4960656;28;20573;-51
2024/02/21 03:13:08;;;;;;;28.60;8.73;;;;;;;;;;4958088;28;20074;-62
2024/02/21 03:16:02;;;;;;;25.55;7.80;;;;;;;;;;4961643;28;20503;-62
2024/02/21 03:18:55;;;;;;;29.30;8.93;;;;;;;;;;4959888;28;20494;-63
2024/02/21 03:21:50;;;;;;;30.52;9.23;;;;;;;;;;4961065;28;20050;-62
2024/02/21 03:24:44;;;;;;;24.60;7.05;;;;;;;;;;4961224;28;20062;-62
2024/02/21 03:27:31;;;;;;;25.88;7.68;;;;;;;;;;4963235;28;20050;-52
2024/02/21 03:30:25;;;;;;;29.88;6.72;;;;;;;;;;4960010;28;20073;-53
2024/02/21 03:33:12;;;;;;;26.15;7.38;;;;;;;;;;4958867;28;20062;-54
2024/02/21 03:36:06;;;;;;;14.60;5.95;;;;;;;;;;4958948;28;20436;-53
2024/02/21 03:38:54;;;;;;;16.17;5.65;;;;;;;;;;4959060;28;20057;-63
2024/02/21 03:41:48;;;;;;;24.40;6.22;;;;;;;;;;4953239;28;20074;-61
2024/02/21 03:44:41;;;;;;;20.90;5.82;;;;;;;;;;4958533;28;20055;-61
2024/02/21 03:47:35;;;;;;;13.50;4.75;;;;;;;;;;4960559;28;20094;-61
2024/02/21 03:50:22;;;;;;;16.90;4.63;;;;;;;;;;4954422;28;20149;-62
2024/02/21 03:53:16;;;;;;;13.52;3.78;;;;;;;;;;4961575;28;20498;-62
2024/02/21 03:56:04;;;;;;;10.20;3.25;;;;;;;;;;4954481;28;20059;-61
2024/02/21 03:58:58;;;;;;;16.10;4.03;;;;;;;;;;4958267;28;20066;-62
2024/02/21 04:01:45;;;;;;;12.18;3.10;;;;;;;;;;4959133;28;20054;-62
2024/02/21 04:04:43;;;;;;;6.15;2.80;;;;;;;;;;4957922;28;20495;-62
2024/02/21 04:07:30;;;;;;;9.95;3.00;;;;;;;;;;4945533;28;20062;-45
2024/02/21 04:10:25;;;;;;;6.22;2.53;;;;;;;;;;4950954;28;20157;-62
2024/02/21 04:13:12;;;;;;;4.25;2.47;;;;;;;;;;4954479;28;20294;-61
2024/02/21 04:16:06;;;;;;;6.43;2.75;;;;;;;;;;4956272;28;20058;-61
2024/02/21 04:18:59;;;;;;;5.43;2.30;;;;;;;;;;4957410;28;20518;-61
2024/02/21 04:21:54;;;;;;;4.30;2.10;;;;;;;;;;4957547;28;20141;-61
2024/02/21 04:24:47;;;;;;;5.97;2.13;;;;;;;;;;4959434;28;20054;-65
2024/02/21 04:27:42;;;;;;;4.72;2.03;;;;;;;;;;4955212;28;20399;-64
2024/02/21 04:30:29;;;;;;;5.78;1.95;;;;;;;;;;4958250;28;20061;-63
2024/02/21 04:33:23;;;;;;;2.95;1.60;;;;;;;;;;4955524;28;20063;-64
2024/02/21 04:36:10;;;;;;;5.32;1.98;;;;;;;;;;4955898;28;20057;-55
2024/02/21 04:39:05;;;;;;;5.15;1.70;;;;;;;;;;4961110;28;20113;-64
2024/02/21 04:41:52;;;;;;;6.72;1.80;;;;;;;;;;4955597;28;20059;-64
2024/02/21 04:44:46;;;;;;;2.55;1.65;;;;;;;;;;4954549;28;20169;-64
2024/02/21 04:47:33;;;;;;;2.65;1.70;;;;;;;;;;4955092;28;20113;-64
2024/02/21 04:50:27;;;;;;;3.70;1.40;;;;;;;;;;4950418;28;20081;-65
2024/02/21 04:53:14;;;;;;;4.50;1.80;;;;;;;;;;4957367;28;20126;-61
2024/02/21 04:56:08;;;;;;;5.13;1.77;;;;;;;;;;4951281;28;20058;-61
2024/02/21 04:58:55;;;;;;;2.22;1.60;;;;;;;;;;4952918;28;20054;-61
2024/02/21 05:01:49;;;;;;;2.58;1.40;;;;;;;;;;4946389;28;20581;-61
2024/02/21 05:04:41;;;;;;;1.98;1.60;;;;;;;;;;4952640;28;20074;-59
2024/02/21 05:07:35;;;;;;;2.63;1.50;;;;;;;;;;4957634;28;20051;-54
2024/02/21 05:10:22;;;;;;;2.33;1.70;;;;;;;;;;4955352;28;20078;-55
2024/02/21 05:13:16;;;;;;;3.58;1.58;;;;;;;;;;4954014;28;20408;-57
2024/02/21 05:16:03;;;;;;;3.00;1.50;;;;;;;;;;4959384;28;20057;-56
2024/02/21 05:19:04;;;;;;;5.97;1.50;;;;;;;;;;4997984;28;20069;-57
2024/02/21 05:21:51;;;;;;;4.57;1.70;;;;;;;;;;4994420;28;20434;-62
2024/02/21 05:24:45;;;;;;;5.32;1.70;;;;;;;;;;4991980;28;20436;-61
2024/02/21 05:27:32;;;;;;;2.55;1.55;;;;;;;;;;4990493;28;20464;-61
2024/02/21 05:30:26;;;;;;;1.60;1.50;;;;;;;;;;4993540;28;21314;-61
2024/02/21 05:33:20;;;;;;;1.88;1.30;;;;;;;;;;4998123;28;20056;-61
2024/02/21 05:36:07;;;;;;;4.50;1.95;;;;;;;;;;4993078;28;20528;-61
2024/02/21 05:38:54;;;;;;;2.13;1.33;;;;;;;;;;4994500;28;20066;-61
2024/02/21 05:41:48;;;;;;;2.72;1.35;;;;;;;;;;4989637;28;20069;-61
2024/02/21 05:44:35;;;;;;;2.13;1.48;;;;;;;;;;4994310;28;20069;-61
2024/02/21 05:47:29;;;;;;;2.45;1.30;;;;;;;;;;4992035;28;20100;-61
2024/02/21 05:50:18;;;;;;;3.45;1.67;;;;;;;;;;4993322;28;20100;-61
2024/02/21 05:53:10;;;;;;;1.08;0.98;;;;;;;;;;4995168;28;20104;-61
2024/02/21 05:55:57;;;;;;;3.08;1.35;;;;;;;;;;4995014;28;20041;-61
2024/02/21 05:58:51;;;;;;;3.70;1.70;;;;;;;;;;4995109;28;21636;-54
2024/02/21 06:01:44;;;;;;;1.90;1.42;;;;;;;;;;4993100;28;20066;-62
2024/02/21 06:04:32;;;;;;;7.03;1.83;;;;;;;;;;4986962;28;20042;-62
2024/02/21 06:07:26;;;;;;;3.45;1.80;;;;;;;;;;4997549;28;20065;-62
2024/02/21 06:10:13;;;;;;;5.40;1.88;;;;;;;;;;4995101;28;20286;-62
2024/02/21 06:13:07;;;;;;;3.30;1.75;;;;;;;;;;4993844;28;20050;-63
2024/02/21 06:15:54;;;;;;;4.88;2.00;;;;;;;;;;4999851;28;20060;-63
2024/02/21 06:18:54;;;;;;;2.50;1.63;;;;;;;;;;4996969;28;20068;-60
2024/02/21 06:21:42;;;;;;;4.50;2.00;;;;;;;;;;4998816;28;20050;-47
2024/02/21 06:24:36;;;;;;;4.80;1.98;;;;;;;;;;4997940;28;20116;-47
2024/02/21 06:27:24;;;;;;;3.45;2.30;;;;;;;;;;4989994;28;20793;-49
2024/02/21 06:30:17;;;;;;;6.20;2.30;;;;;;;;;;4996114;28;20061;-47
2024/02/21 06:33:04;;;;;;;3.45;2.13;;;;;;;;;;4988735;28;20070;-46
2024/02/21 06:35:58;;;;;;;6.55;3.35;;;;;;;;;;4996799;28;20093;-49
2024/02/21 06:38:45;;;;;;;6.53;2.55;;;;;;;;;;4994472;28;20099;-62
2024/02/21 06:41:40;;;;;;;5.85;2.85;;;;;;;;;;4995389;28;20416;-62
2024/02/21 06:44:31;;;;;;;5.05;2.60;;;;;;;;;;4996638;28;20082;-61
2024/02/21 06:47:24;;;;;;;5.40;3.13;;;;;;;;;;4999281;28;20057;-62
2024/02/21 06:50:18;;;;;;;7.97;3.25;;;;;;;;;;4995194;28;20050;-63
2024/02/21 06:53:05;;;;;;;7.72;3.03;;;;;;;;;;4991502;28;20509;-52
2024/02/21 06:55:59;;;;;;;4.82;3.47;;;;;;;;;;4990001;28;20053;-59
2024/02/21 06:58:46;;;;;;;5.13;2.97;;;;;;;;;;4994627;28;20501;-62
2024/02/21 07:01:40;;;;;;;5.93;2.75;;;;;;;;;;4992046;28;20057;-62
2024/02/21 07:04:34;;;;;;;6.13;3.60;;;;;;;;;;4995641;28;20045;-62
2024/02/21 07:07:22;;;;;;;4.22;2.50;;;;;;;;;;4999028;28;20058;-62
2024/02/21 07:10:16;;;;;;;7.03;3.33;;;;;;;;;;4994452;28;20056;-62
2024/02/21 07:13:03;;;;;;;15.70;4.13;;;;;;;;;;4995125;28;20497;-51
2024/02/21 07:15:57;;;;;;;5.50;3.20;;;;;;;;;;4995467;28;20172;-47
2024/02/21 07:18:51;;;;;;;10.43;4.25;;;;;;;;;;4997766;28;20054;-48
2024/02/21 07:21:45;;;;;;;6.32;3.60;;;;;;;;;;4992420;28;20054;-47
2024/02/21 07:24:32;;;;;;;4.90;3.50;;;;;;;;;;4995814;28;20560;-48
2024/02/21 07:27:31;;;;;;;6.25;3.15;;;;;;;;;;4995762;28;20062;-48
2024/02/21 07:30:16;;;;;;;4.60;2.78;;;;;;;;;;4997475;28;20113;-53
2024/02/21 07:33:10;;;;;;;4.75;2.95;;;;;;;;;;5001242;28;20112;-56
2024/02/21 07:35:57;;;;;;;7.70;3.92;;;;;;;;;;4994186;28;20062;-55
2024/02/21 07:38:51;;;;;;;8.68;3.30;;;;;;;;;;4998795;28;20053;-55
2024/02/21 07:41:39;;;;;;;7.53;3.70;;;;;;;;;;4995258;28;20054;-56
2024/02/21 07:44:34;;;;;;;9.57;3.60;;;;;;;;;;4994046;28;20054;-57
2024/02/21 07:47:20;;;;;;;8.67;3.30;;;;;;;;;;5000778;28;20124;-57
2024/02/21 07:50:14;;;;;;;9.35;3.55;;;;;;;;;;4998370;28;20089;-45
2024/02/21 07:53:02;;;;;;;9.38;4.10;;;;;;;;;;4999401;28;20131;-57
2024/02/21 07:55:55;;;;;;;9.15;4.00;;;;;;;;;;5000497;28;20046;-53
2024/02/21 07:58:44;;;;;;;6.20;3.60;;;;;;;;;;4996210;28;20046;-59
2024/02/21 08:01:38;;;;;;;5.82;3.42;;;;;;;;;;4997234;28;20494;-56
2024/02/21 08:04:25;;;;;;;9.52;4.40;;;;;;;;;;4997105;28;20046;-55
2024/02/21 08:07:19;;;;;;;14.10;4.85;;;;;;;;;;5003392;28;20050;-62
2024/02/21 08:10:13;;;;;;;15.70;5.57;;;;;;;;;;5000047;28;20058;-61
2024/02/21 08:13:00;;;;;;;24.80;6.40;;;;;;;;;;4998069;28;20421;-61
2024/02/21 08:15:54;;;;;;;18.48;6.13;;;;;;;;;;4991577;28;20435;-61
2024/02/21 08:18:47;;;;;;;30.27;7.28;;;;;;;;;;4995245;28;20058;-61
2024/02/21 08:21:43;;;;;;;88.60;10.90;;;;;;;;;;4997345;28;20050;-62
2024/02/21 08:24:30;;;;;;;59.70;9.27;;;;;;;;;;4989520;28;20522;-61
2024/02/21 08:27:24;;;;;;;27.30;7.55;;;;;;;;;;4999135;28;20046;-58
2024/02/21 08:30:11;;;;;;;58.88;8.82;;;;;;;;;;4996880;28;20046;-64
2024/02/21 08:33:05;;;;;;;62.72;9.00;;;;;;;;;;5000557;28;20051;-64
2024/02/21 08:35:52;;;;;;;239.77;16.15;;;;;;;;;;4998981;28;20378;-64
2024/02/21 08:38:46;;;;;;;217.23;14.68;;;;;;;;;;5001135;28;20489;-64
2024/02/21 08:41:39;;;;;;;175.38;13.82;;;;;;;;;;4995063;28;20058;-65
2024/02/21 08:44:28;;;;;;;116.35;10.35;;;;;;;;;;4994611;28;20101;-65
2024/02/21 08:47:22;;;;;;;134.00;10.25;;;;;;;;;;4997214;28;20467;-62
2024/02/21 08:50:10;;;;;;;21.75;6.25;;;;;;;;;;4994472;28;20302;-62
2024/02/21 08:53:03;;;;;;;109.72;9.88;;;;;;;;;;4997668;28;20128;-62
2024/02/21 08:55:50;;;;;;;26.65;6.18;;;;;;;;;;4997771;28;20502;-62
2024/02/21 08:58:44;;;;;;;15.93;4.80;;;;;;;;;;5000792;28;20058;-62
2024/02/21 09:01:32;;;;;;;14.77;5.05;;;;;;;;;;4996640;28;20046;-61
2024/02/21 09:04:25;;;;;;;12.68;5.10;;;;;;;;;;4989362;28;20069;-62
2024/02/21 09:07:12;;;;;;;13.40;4.78;;;;;;;;;;4997992;28;21226;-58
2024/02/21 09:10:06;;;;;;;13.43;4.40;;;;;;;;;;4997531;28;20523;-59
2024/02/21 09:12:54;;;;;;;8.95;4.32;;;;;;;;;;5001452;28;20149;-59
2024/02/21 09:15:48;;;;;;;10.15;4.10;;;;;;;;;;4998115;28;20061;-57
2024/02/21 09:18:28;;;;;;;11.93;4.55;;;;;;;;;;4996771;28;20506;-58
2024/02/21 09:21:03;;;;;;;11.88;4.50;;;;;;;;;;4997536;28;20430;-63
2024/02/21 09:23:50;;;;;;;9.40;4.53;;;;;;;;;;4998852;28;20054;-57
2024/02/21 09:26:44;;;;;;;8.13;4.53;;;;;;;;;;4999705;28;20054;-58
2024/02/21 09:29:32;;;;;;;11.98;5.90;;;;;;;;;;4996173;28;20081;-56
2024/02/21 09:32:26;;;;;;;5.82;3.40;;;;;;;;;;4991150;28;20512;-59
2024/02/21 09:35:13;;;;;;;8.40;4.15;;;;;;;;;;4994820;28;20064;-57
2024/02/21 09:38:07;;;;;;;6.80;3.40;;;;;;;;;;4993836;28;20148;-58
2024/02/21 09:41:01;;;;;;;6.93;3.20;;;;;;;;;;4997007;28;20529;-58
2024/02/21 09:43:54;;;;;;;8.13;3.45;;;;;;;;;;4998869;28;20074;-55
2024/02/21 09:46:41;;;;;;;4.47;3.03;;;;;;;;;;4997489;28;20070;-55
2024/02/21 09:49:38;;;;;;;2.92;2.00;;;;;;;;;;5000223;28;20057;-58
2024/02/21 09:52:27;;;;;;;2.80;2.00;;;;;;;;;;4998556;28;20077;-57
2024/02/21 09:55:21;;;;;;;3.33;2.00;;;;;;;;;;4997868;28;20058;-56
2024/02/21 09:58:09;;;;;;;1.98;1.77;;;;;;;;;;4988652;28;20065;-55
2024/02/21 10:01:06;;;;;;;1.52;1.30;;;;;;;;;;4997011;28;20164;-57
2024/02/21 10:04:02;;;;;;;1.75;1.38;;;;;;;;;;4991193;28;20528;-58
2024/02/21 10:06:55;;;;;;;3.03;1.40;;;;;;;;;;4997946;28;20077;-58
2024/02/21 10:09:45;;;;;;;10.80;1.85;;;;;;;;;;4995542;28;20049;-58
2024/02/21 10:12:37;;;;;;;1.40;1.20;;;;;;;;;;4993081;28;20117;-57
2024/02/21 10:15:25;;;;;;;2.17;1.67;;;;;;;;;;4996705;28;20468;-58
2024/02/21 10:18:19;;;;;;;2.70;1.65;;;;;;;;;;4993347;28;20116;-54
2024/02/21 10:21:13;;;;;;;17.80;1.80;;;;;;;;;;4998535;28;20050;-65
2024/02/21 10:24:13;;;;;;;2.25;1.50;;;;;;;;;;4997059;28;20050;-64
2024/02/21 10:27:04;;;;;;;1.73;1.55;;;;;;;;;;4988956;28;20050;-65
2024/02/21 10:29:58;;;;;;;2.05;1.25;;;;;;;;;;4997565;28;20042;-64
2024/02/21 10:32:54;;;;;;;1.25;1.05;;;;;;;;;;4993828;28;20066;-65
2024/02/21 10:35:49;;;;;;;2.63;1.70;;;;;;;;;;4997982;28;20053;-64
2024/02/21 10:38:36;;;;;;;1.88;1.50;;;;;;;;;;4994077;28;20050;-62
2024/02/21 10:41:31;;;;;;;1.38;1.00;;;;;;;;;;4994660;28;20069;-62
2024/02/21 10:44:26;;;;;;;1.33;1.10;;;;;;;;;;4994175;28;20136;-61
2024/02/21 10:47:14;;;;;;;0.82;0.82;;;;;;;;;;4993601;28;20751;-62
2024/02/21 10:50:08;;;;;;;0.70;0.70;;;;;;;;;;4994164;28;20434;-62
2024/02/21 10:53:00;;;;;;;0.60;0.60;;;;;;;;;;4993900;28;20054;-59
2024/02/21 10:56:13;;;;;;;1.02;0.60;;;;;;;;;;4994336;28;20060;-52
2024/02/21 10:59:02;;;;;;;1.55;0.60;;;;;;;;;;4994069;28;20077;-52
2024/02/21 11:01:55;;;;;;;0.68;0.68;;;;;;;;;;4993059;28;20053;-52
2024/02/21 11:04:45;;;;;;;1.35;0.80;;;;;;;;;;4993792;28;20054;-53
2024/02/21 11:07:39;;;;;;;2.70;0.70;;;;;;;;;;4992170;28;20093;-48
2024/02/21 11:10:26;;;;;;;1.20;1.10;;;;;;;;;;4994181;28;20086;-54
2024/02/21 11:13:31;;;;;;;1.08;0.80;;;;;;;;;;4991519;28;20052;-62
2024/02/21 11:16:24;;;;;;;1.58;0.98;;;;;;;;;;4997624;28;20199;-52
2024/02/21 11:19:28;;;;;;;0.80;0.80;;;;;;;;;;4994599;28;20054;-56
2024/02/21 11:22:19;;;;;;;1.40;0.93;;;;;;;;;;4993016;28;20072;-52
2024/02/21 11:25:21;;;;;;;0.90;0.90;;;;;;;;;;4999361;28;20595;-52
2024/02/21 11:28:08;;;;;;;1.60;1.30;;;;;;;;;;4998180;28;20141;-50
2024/02/21 11:31:07;;;;;;;1.52;1.23;;;;;;;;;;5002665;28;20058;-56
2024/02/21 11:33:55;;;;;;;1.30;1.20;;;;;;;;;;4994252;28;20441;-62
2024/02/21 11:36:49;;;;;;;1.35;1.10;;;;;;;;;;5000333;28;20452;-62
2024/02/21 11:39:36;;;;;;;2.33;1.65;;;;;;;;;;4999974;28;20107;-62
2024/02/21 11:42:31;;;;;;;1.75;1.50;;;;;;;;;;4999432;28;20064;-62
2024/02/21 11:45:27;;;;;;;2.00;1.80;;;;;;;;;;4999229;28;20596;-61
2024/02/21 11:48:14;;;;;;;1.95;1.70;;;;;;;;;;5000199;28;20058;-61
2024/02/21 11:51:08;;;;;;;1.48;1.38;;;;;;;;;;5001960;28;20141;-62
2024/02/21 11:53:55;;;;;;;1.70;1.60;;;;;;;;;;5000632;28;20058;-63
2024/02/21 11:56:49;;;;;;;1.80;1.40;;;;;;;;;;4998306;28;20054;-62
2024/02/21 11:59:36;;;;;;;1.75;1.38;;;;;;;;;;4997511;28;20051;-62
2024/02/21 12:02:33;;;;;;;1.70;1.60;;;;;;;;;;4997248;28;20050;-61
2024/02/21 12:05:20;;;;;;;1.65;1.55;;;;;;;;;;4999102;28;20544;-62
2024/02/21 12:08:14;;;;;;;1.80;1.55;;;;;;;;;;4998216;28;20581;-61
2024/02/21 12:11:20;;;;;;;2.75;1.90;;;;;;;;;;4997068;28;20050;-65
2024/02/21 12:14:17;;;;;;;4.38;1.60;;;;;;;;;;5000174;28;20052;-65
2024/02/21 12:17:18;;;;;;;2.20;1.40;;;;;;;;;;4996959;28;20100;-64
2024/02/21 12:20:11;;;;;;;2.03;1.60;;;;;;;;;;4999886;28;20057;-65
2024/02/21 12:23:05;;;;;;;3.97;1.83;;;;;;;;;;4997761;28;20124;-64
2024/02/21 12:25:54;;;;;;;1.60;1.13;;;;;;;;;;4997223;28;20398;-54
2024/02/21 12:28:47;;;;;;;1.50;1.20;;;;;;;;;;4997405;28;20137;-62
2024/02/21 12:31:35;;;;;;;1.40;1.13;;;;;;;;;;4996463;28;20046;-62
2024/02/21 12:34:31;;;;;;;1.95;1.00;;;;;;;;;;4994571;28;20129;-62
2024/02/21 12:37:24;;;;;;;1.98;1.02;;;;;;;;;;4998329;28;20493;-62
2024/02/21 12:40:18;;;;;;;2.70;0.95;;;;;;;;;;4997597;28;20450;-62
2024/02/21 12:43:05;;;;;;;2.25;1.10;;;;;;;;;;4994771;28;20520;-47
2024/02/21 12:45:59;;;;;;;1.55;1.10;;;;;;;;;;4995737;28;20100;-64
2024/02/21 12:48:46;;;;;;;1.80;1.17;;;;;;;;;;4996432;28;20056;-66
2024/02/21 12:51:42;;;;;;;2.03;1.20;;;;;;;;;;4992718;28;20197;-66
2024/02/21 12:54:27;;;;;;;3.63;1.38;;;;;;;;;;4995497;28;20112;-65
2024/02/21 12:57:22;;;;;;;1.55;1.35;;;;;;;;;;4997428;28;20053;-66
2024/02/21 13:00:08;;;;;;;1.77;1.50;;;;;;;;;;4993238;28;20940;-65
2024/02/21 13:03:02;;;;;;;3.58;1.80;;;;;;;;;;4994650;28;20435;-48
2024/02/21 13:05:49;;;;;;;3.47;1.80;;;;;;;;;;4991417;28;20050;-61
2024/02/21 13:08:44;;;;;;;2.10;1.70;;;;;;;;;;4998288;28;20073;-62
2024/02/21 13:11:37;;;;;;;2.45;1.90;;;;;;;;;;5000463;28;20050;-61
2024/02/21 13:14:24;;;;;;;1.88;1.40;;;;;;;;;;4995557;28;20148;-62
2024/02/21 13:17:30;;;;;;;1.83;1.40;;;;;;;;;;4995740;28;20053;-62
2024/02/21 13:20:18;;;;;;;1.15;1.00;;;;;;;;;;4997831;28;20061;-61
2024/02/21 13:23:12;;;;;;;3.90;1.27;;;;;;;;;;4994785;28;20458;-45
2024/02/21 13:25:59;;;;;;;2.47;1.30;;;;;;;;;;4997732;28;20068;-48
2024/02/21 13:28:53;;;;;;;1.63;0.90;;;;;;;;;;4997215;28;20054;-48
2024/02/21 13:31:47;;;;;;;0.95;0.85;;;;;;;;;;4996403;28;20061;-45
2024/02/21 13:34:34;;;;;;;0.93;0.88;;;;;;;;;;4998827;28;20132;-45
2024/02/21 13:37:28;;;;;;;1.27;1.00;;;;;;;;;;4992882;28;20050;-64
2024/02/21 13:40:16;;;;;;;1.73;0.70;;;;;;;;;;4994663;28;20398;-57
2024/02/21 13:43:09;;;;;;;1.25;0.80;;;;;;;;;;4995957;28;20049;-47
2024/02/21 13:45:58;;;;;;;3.67;0.60;;;;;;;;;;4995999;28;20057;-47
2024/02/21 13:48:52;;;;;;;0.60;0.60;;;;;;;;;;4996225;28;20047;-46
2024/02/21 13:51:40;;;;;;;2.47;0.80;;;;;;;;;;4998310;28;20058;-45
2024/02/21 13:54:33;;;;;;;0.65;0.65;;;;;;;;;;4994011;28;20046;-45
2024/02/21 13:57:20;;;;;;;1.05;0.75;;;;;;;;;;4993668;28;20057;-62
2024/02/21 14:00:14;;;;;;;2.30;0.80;;;;;;;;;;4994800;28;20057;-58
2024/02/21 14:03:01;;;;;;;1.52;0.85;;;;;;;;;;4997942;28;20548;-55
2024/02/21 14:05:55;;;;;;;0.77;0.70;;;;;;;;;;4993159;28;20054;-60
2024/02/21 14:08:42;;;;;;;2.38;1.13;;;;;;;;;;4995081;28;20636;-57
2024/02/21 14:11:37;;;;;;;1.35;0.80;;;;;;;;;;4995951;28;20053;-60
2024/02/21 14:14:23;;;;;;;1.48;0.70;;;;;;;;;;4998691;28;20116;-63
2024/02/21 14:17:17;;;;;;;1.98;0.85;;;;;;;;;;4995084;28;20054;-61
2024/02/21 14:20:13;;;;;;;1.70;0.70;;;;;;;;;;4993242;28;20486;-48
2024/02/21 14:23:13;;;;;;;0.70;0.70;;;;;;;;;;4981470;28;20106;-48
2024/02/21 14:26:06;;;;;;;1.92;0.90;;;;;;;;;;4995462;28;20061;-47
2024/02/21 14:28:52;;;;;;;0.77;0.63;;;;;;;;;;4992331;28;20058;-51
2024/02/21 14:31:46;;;;;;;1.08;0.70;;;;;;;;;;4990905;28;20056;-52
2024/02/21 14:34:33;;;;;;;0.80;0.77;;;;;;;;;;4991650;28;20050;-63
2024/02/21 14:37:32;;;;;;;1.30;1.07;;;;;;;;;;4996022;28;20046;-57
2024/02/21 14:40:20;;;;;;;1.88;1.08;;;;;;;;;;4993038;28;20315;-60
2024/02/21 14:43:13;;;;;;;1.58;1.00;;;;;;;;;;4995792;28;20174;-56
2024/02/21 14:46:02;;;;;;;1.75;1.33;;;;;;;;;;4995741;28;20058;-57
2024/02/21 14:48:54;;;;;;;1.55;1.45;;;;;;;;;;4993607;28;20050;-59
2024/02/21 14:51:45;;;;;;;1.55;1.45;;;;;;;;;;4994622;28;20052;-65
2024/02/21 14:54:42;;;;;;;2.00;1.70;;;;;;;;;;4994163;28;20062;-61
2024/02/21 14:57:26;;;;;;;3.08;1.70;;;;;;;;;;4992140;28;20082;-61
2024/02/21 15:00:22;;;;;;;2.53;1.65;;;;;;;;;;4997953;28;20128;-61
2024/02/21 15:03:07;;;;;;;2.45;1.67;;;;;;;;;;4990077;28;20057;-61
2024/02/21 15:06:01;;;;;;;4.82;2.20;;;;;;;;;;4995664;28;20046;-60
2024/02/21 15:08:49;;;;;;;4.47;2.38;;;;;;;;;;4995933;28;20057;-61
2024/02/21 15:11:43;;;;;;;3.58;2.55;;;;;;;;;;4994228;28;20058;-60
2024/02/21 15:14:30;;;;;;;3.10;2.60;;;;;;;;;;4994140;28;20578;-57
2024/02/21 15:17:24;;;;;;;4.03;2.92;;;;;;;;;;4994005;28;20108;-59
2024/02/21 15:20:25;;;;;;;3.55;2.45;;;;;;;;;;4996456;28;20767;-59
2024/02/21 15:23:20;;;;;;;4.30;2.75;;;;;;;;;;4992333;28;20050;-60
2024/02/21 15:26:06;;;;;;;2.78;2.13;;;;;;;;;;4993558;28;20054;-57
2024/02/21 15:29:00;;;;;;;3.28;2.28;;;;;;;;;;4995362;28;20470;-56
2024/02/21 15:31:47;;;;;;;3.80;2.20;;;;;;;;;;4992300;28;20133;-61
2024/02/21 15:34:41;;;;;;;3.10;2.40;;;;;;;;;;5000536;28;20133;-60
2024/02/21 15:37:29;;;;;;;2.40;1.92;;;;;;;;;;4994296;28;20165;-60
2024/02/21 15:40:22;;;;;;;3.03;2.50;;;;;;;;;;4989679;28;20061;-61
2024/02/21 15:43:10;;;;;;;2.63;2.13;;;;;;;;;;4992828;28;20060;-61
2024/02/21 15:46:04;;;;;;;2.85;2.08;;;;;;;;;;4994495;28;20418;-60
2024/02/21 15:48:58;;;;;;;3.47;2.40;;;;;;;;;;4993049;28;20312;-53
2024/02/21 15:51:46;;;;;;;2.35;1.92;;;;;;;;;;4989909;28;20245;-64
2024/02/21 15:54:39;;;;;;;2.70;1.98;;;;;;;;;;4990811;28;20085;-63
2024/02/21 15:57:33;;;;;;;2.40;1.80;;;;;;;;;;4993292;28;20506;-64
2024/02/21 16:00:22;;;;;;;2.80;2.00;;;;;;;;;;4990359;28;20057;-64
2024/02/21 16:03:14;;;;;;;3.30;2.10;;;;;;;;;;4992301;28;20058;-63
2024/02/21 16:06:09;;;;;;;2.72;2.08;;;;;;;;;;4996564;28;20053;-50
2024/02/21 16:09:05;;;;;;;2.78;2.15;;;;;;;;;;4997007;28;20062;-53
2024/02/21 16:11:49;;;;;;;3.30;2.13;;;;;;;;;;4998852;28;20050;-57
2024/02/21 16:14:43;;;;;;;4.50;2.42;;;;;;;;;;4996497;28;20425;-59
2024/02/21 16:17:31;;;;;;;3.15;1.90;;;;;;;;;;4993589;28;20107;-58
2024/02/21 16:20:30;;;;;;;3.28;2.30;;;;;;;;;;4995083;28;20046;-57
2024/02/21 16:23:18;;;;;;;2.70;2.13;;;;;;;;;;4991955;28;20046;-63
2024/02/21 16:26:12;;;;;;;4.80;2.20;;;;;;;;;;4993628;28;20058;-58
2024/02/21 16:28:59;;;;;;;4.00;1.90;;;;;;;;;;4998477;28;20128;-56
2024/02/21 16:31:53;;;;;;;6.15;2.00;;;;;;;;;;4999254;28;20497;-59
2024/02/21 16:34:41;;;;;;;10.50;2.50;;;;;;;;;;4999293;28;20462;-58
2024/02/21 16:37:36;;;;;;;9.77;2.03;;;;;;;;;;4989600;28;20089;-57
2024/02/21 16:40:22;;;;;;;7.93;2.28;;;;;;;;;;4999433;28;20064;-60
2024/02/21 16:43:16;;;;;;;8.77;1.92;;;;;;;;;;4997460;28;20064;-64
2024/02/21 16:46:03;;;;;;;8.98;1.50;;;;;;;;;;4999153;28;20046;-66
2024/02/21 16:48:57;;;;;;;6.30;1.70;;;;;;;;;;5000533;28;20101;-65
2024/02/21 16:51:44;;;;;;;13.15;2.28;;;;;;;;;;4995180;28;20528;-65
2024/02/21 16:54:38;;;;;;;12.25;2.22;;;;;;;;;;4991048;28;20065;-66
2024/02/21 16:57:25;;;;;;;10.38;2.28;;;;;;;;;;4993218;28;20054;-65